Lane City, Texas
Current Conditions -  °F | °C
As of 9:15 AM on Wednesday 22 Oct 2014 (Local Time) from KARM Reporting Station
Clear Clear  
Wind Chill: 71°   Ceiling: Unl
Heat Index: 71°   Visibility: 10mi
Dew Point: 62°   Wind: 9mph
Humidity: 74%   Direction: 60°ENE
Pressure: 30.09"   Gusts: NA
Location:  29.22°N, 96.03°W
Report Text: KARM 221415Z AUTO 06008KT 10SM CLR 21/17 A3009 RMK AO2 T02140167
Loading
Personal Weather Stations






























Interactive Weather Map
Tropical Storm Tracking
New forecast layout! Learn more

10-Day Weather Forecast

Advertisements
Track Severe Weather on mobile